createdAt,value
2018-05-15T00:02:22.858Z,47.63
2018-05-15T00:04:49.524Z,47.67
2018-05-15T00:07:16.196Z,47.64
2018-05-15T00:09:42.818Z,47.68
2018-05-15T00:12:09.499Z,47.61
2018-05-15T00:14:36.227Z,47.54
2018-05-15T00:17:02.910Z,47.53
2018-05-15T00:19:29.547Z,47.58
2018-05-15T00:21:56.180Z,47.57
2018-05-15T00:24:22.823Z,47.67
2018-05-15T00:26:49.468Z,47.67
2018-05-15T00:29:16.141Z,47.58
2018-05-15T00:31:42.780Z,47.56
2018-05-15T00:34:09.425Z,47.46
2018-05-15T00:36:36.114Z,47.44
2018-05-15T00:39:02.750Z,47.36
2018-05-15T00:41:29.387Z,47.31
2018-05-15T00:43:56.035Z,47.34
2018-05-15T00:46:22.708Z,47.30
2018-05-15T00:48:49.353Z,47.17
2018-05-15T00:51:15.988Z,47.16
2018-05-15T00:53:42.646Z,47.12
2018-05-15T00:56:09.293Z,47.01
2018-05-15T00:58:35.937Z,46.99
2018-05-15T01:01:02.580Z,46.84
2018-05-15T01:03:29.264Z,46.79
2018-05-15T01:05:55.896Z,46.84
2018-05-15T01:08:22.535Z,46.69
2018-05-15T01:10:49.217Z,46.69
2018-05-15T01:13:15.852Z,46.71
2018-05-15T01:15:42.532Z,46.60
2018-05-15T01:18:09.210Z,46.64
2018-05-15T01:20:35.846Z,46.60
2018-05-15T01:23:02.529Z,46.52
2018-05-15T01:25:29.167Z,46.56
2018-05-15T01:27:55.862Z,46.63
2018-05-15T01:30:22.492Z,46.62
2018-05-15T01:32:49.130Z,46.69
2018-05-15T01:35:15.773Z,46.72
2018-05-15T01:37:42.459Z,46.69
2018-05-15T01:40:09.122Z,46.54
2018-05-15T01:42:35.802Z,46.58
2018-05-15T01:45:02.488Z,46.62
2018-05-15T01:47:29.187Z,46.57
2018-05-15T01:49:55.861Z,46.54
2018-05-15T01:52:22.462Z,46.57
2018-05-15T01:54:49.146Z,46.56
2018-05-15T01:57:15.794Z,46.61
2018-05-15T01:59:42.432Z,46.61
2018-05-15T02:02:09.073Z,46.67
2018-05-15T02:04:35.764Z,46.61
2018-05-15T02:07:02.441Z,46.52
2018-05-15T02:09:29.118Z,46.60
2018-05-15T02:11:55.790Z,46.55
2018-05-15T02:14:22.482Z,46.59
2018-05-15T02:16:49.129Z,46.55
2018-05-15T02:19:15.760Z,46.56
2018-05-15T02:21:42.449Z,46.59
2018-05-15T02:24:09.124Z,46.60
2018-05-15T02:26:35.824Z,46.62
2018-05-15T02:29:02.455Z,46.64
2018-05-15T02:31:29.092Z,46.66
2018-05-15T02:33:55.770Z,46.69
2018-05-15T02:36:22.408Z,46.69
2018-05-15T02:38:49.108Z,46.68
2018-05-15T02:41:15.746Z,46.72
2018-05-15T02:43:42.507Z,46.78
2018-05-15T02:46:09.144Z,46.78
2018-05-15T02:48:35.809Z,46.81
2018-05-15T02:51:02.443Z,46.75
2018-05-15T02:53:29.084Z,46.72
2018-05-15T02:55:55.762Z,46.74
2018-05-15T02:58:22.401Z,46.75
2018-05-15T03:00:49.088Z,46.69
2018-05-15T03:03:15.723Z,46.66
2018-05-15T03:05:42.404Z,46.68
2018-05-15T03:08:09.026Z,46.66
2018-05-15T03:10:35.665Z,46.62
2018-05-15T03:13:02.369Z,47.16
2018-05-15T03:15:29.013Z,47.81
2018-05-15T03:17:55.685Z,48.29
2018-05-15T03:20:22.381Z,48.69
2018-05-15T03:22:49.061Z,48.72
2018-05-15T03:25:15.697Z,49.06
2018-05-15T03:27:42.377Z,49.66
2018-05-15T03:30:09.019Z,49.68
2018-05-15T03:32:35.646Z,49.17
2018-05-15T03:35:04.396Z,49.36
2018-05-15T03:37:28.931Z,48.76
2018-05-15T03:39:57.004Z,48.38
2018-05-15T03:42:22.296Z,48.02
2018-05-15T03:44:48.931Z,47.89
2018-05-15T03:47:15.642Z,47.45
2018-05-15T03:49:42.305Z,47.40
2018-05-15T03:52:09.040Z,47.25
2018-05-15T03:54:35.722Z,46.97
2018-05-15T03:57:02.354Z,46.61
2018-05-15T03:59:28.990Z,46.30
2018-05-15T04:01:55.632Z,46.29
2018-05-15T04:04:22.274Z,45.82
2018-05-15T04:06:48.970Z,45.57
2018-05-15T04:09:15.608Z,45.74
2018-05-15T04:11:42.247Z,46.01
2018-05-15T04:14:08.950Z,46.06
2018-05-15T04:16:35.582Z,45.69
2018-05-15T04:19:02.351Z,45.49
2018-05-15T04:21:29.002Z,45.22
2018-05-15T04:23:55.640Z,45.68
2018-05-15T04:26:22.274Z,45.81
2018-05-15T04:28:48.922Z,46.06
2018-05-15T04:31:15.611Z,45.95
2018-05-15T04:33:42.287Z,45.97
2018-05-15T04:36:08.964Z,45.95
2018-05-15T04:38:35.653Z,46.07
2018-05-15T04:41:02.290Z,46.25
2018-05-15T04:43:29.019Z,46.22
2018-05-15T04:45:55.580Z,46.03
2018-05-15T04:48:22.222Z,46.30
2018-05-15T04:50:48.957Z,46.22
2018-05-15T04:53:15.644Z,46.38
2018-05-15T04:55:42.310Z,46.36
2018-05-15T04:58:08.975Z,46.38
2018-05-15T05:00:35.608Z,46.37
2018-05-15T05:03:02.246Z,46.32
2018-05-15T05:05:28.921Z,46.13
2018-05-15T05:07:55.559Z,45.89
2018-05-15T05:10:22.253Z,45.73
2018-05-15T05:12:48.883Z,45.62
2018-05-15T05:15:15.523Z,45.49
2018-05-15T05:17:42.226Z,45.29
2018-05-15T05:20:08.911Z,45.20
2018-05-15T05:22:35.588Z,45.04
2018-05-15T05:25:02.279Z,44.98
2018-05-15T05:27:28.951Z,44.94
2018-05-15T05:29:55.593Z,45.22
2018-05-15T05:32:22.311Z,45.06
2018-05-15T05:34:48.981Z,44.95
2018-05-15T05:37:15.656Z,44.79
2018-05-15T05:39:42.270Z,44.75
2018-05-15T05:42:08.991Z,44.96
2018-05-15T05:44:35.636Z,44.79
2018-05-15T05:47:02.296Z,45.06
2018-05-15T05:49:28.931Z,44.77
2018-05-15T05:51:55.666Z,44.74
2018-05-15T05:54:23.006Z,44.50
2018-05-15T05:56:49.639Z,44.36
2018-05-15T05:59:16.277Z,44.17
2018-05-15T06:01:42.931Z,44.26
2018-05-15T06:04:09.639Z,44.41
2018-05-15T06:06:36.303Z,44.09
2018-05-15T06:09:02.959Z,44.13
2018-05-15T06:11:29.672Z,44.19
2018-05-15T06:13:56.322Z,44.07
2018-05-15T06:16:22.991Z,43.37
2018-05-15T06:18:49.662Z,43.31
2018-05-15T06:21:16.325Z,43.83
2018-05-15T06:23:43.009Z,44.29
2018-05-15T06:26:09.643Z,45.27
2018-05-15T06:28:36.327Z,45.55
2018-05-15T06:31:03.193Z,45.85
2018-05-15T06:33:29.831Z,45.86
2018-05-15T06:35:56.524Z,45.75
2018-05-15T06:38:23.223Z,45.45
2018-05-15T06:40:49.903Z,45.22
2018-05-15T06:43:16.563Z,44.93
2018-05-15T06:45:44.335Z,44.78
2018-05-15T06:48:10.992Z,44.62
2018-05-15T06:50:37.677Z,44.67
2018-05-15T06:53:04.315Z,44.37
2018-05-15T06:55:30.991Z,44.60
2018-05-15T06:57:57.666Z,44.60
2018-05-15T07:00:24.325Z,44.58
2018-05-15T07:02:50.970Z,44.00
2018-05-15T07:05:17.617Z,43.88
2018-05-15T07:07:44.349Z,45.01
2018-05-15T07:10:10.960Z,45.68
2018-05-15T07:12:37.644Z,46.20
2018-05-15T07:15:04.309Z,46.11
2018-05-15T07:17:31.028Z,45.81
2018-05-15T07:19:59.064Z,45.70
2018-05-15T07:22:24.353Z,45.37
2018-05-15T07:24:51.048Z,45.16
2018-05-15T07:27:17.750Z,44.39
2018-05-15T07:29:44.390Z,44.09
2018-05-15T07:32:11.028Z,45.52
2018-05-15T07:34:37.680Z,46.30
2018-05-15T07:37:04.341Z,46.63
2018-05-15T07:39:31.577Z,46.29
2018-05-15T07:41:58.233Z,45.79
2018-05-15T07:44:24.889Z,45.69
2018-05-15T07:46:51.527Z,45.46
2018-05-15T07:49:18.191Z,44.18
2018-05-15T07:51:44.833Z,44.95
2018-05-15T07:54:11.682Z,44.62
2018-05-15T07:56:38.327Z,44.38
2018-05-15T07:59:04.962Z,44.40
2018-05-15T08:01:31.654Z,43.74
2018-05-15T08:03:58.321Z,43.93
2018-05-15T08:06:24.967Z,43.44
2018-05-15T08:08:51.620Z,43.47
2018-05-15T08:11:18.347Z,43.58
2018-05-15T08:13:45.028Z,42.44
2018-05-15T08:16:11.675Z,43.45
2018-05-15T08:18:38.323Z,44.12
2018-05-15T08:21:05.324Z,44.63
2018-05-15T08:23:32.020Z,44.80
2018-05-15T08:25:58.656Z,44.00
2018-05-15T08:28:25.292Z,44.17
2018-05-15T08:30:52.049Z,43.43
2018-05-15T08:33:18.603Z,43.10
2018-05-15T08:35:45.241Z,42.78
2018-05-15T08:38:11.932Z,43.25
2018-05-15T08:40:38.543Z,42.61
2018-05-15T08:43:05.263Z,42.80
2018-05-15T08:45:32.948Z,43.67
2018-05-15T08:47:59.593Z,44.35
2018-05-15T08:50:26.294Z,44.26
2018-05-15T08:52:52.974Z,44.76
2018-05-15T08:55:19.668Z,44.68
2018-05-15T08:57:46.344Z,45.14
2018-05-15T09:00:12.981Z,44.73
2018-05-15T09:02:39.670Z,44.02
2018-05-15T09:05:06.312Z,43.21
2018-05-15T09:07:32.954Z,43.65
2018-05-15T09:09:59.588Z,43.09
2018-05-15T09:12:26.274Z,43.28
2018-05-15T09:14:52.914Z,44.29
2018-05-15T09:17:19.550Z,44.61
2018-05-15T09:19:46.236Z,45.10
2018-05-15T09:22:12.877Z,45.07
2018-05-15T09:24:39.535Z,45.02
2018-05-15T09:27:06.182Z,44.03
2018-05-15T09:29:32.817Z,44.53
2018-05-15T09:31:59.500Z,43.83
2018-05-15T09:34:26.132Z,43.46
2018-05-15T09:36:52.765Z,43.71
2018-05-15T09:39:19.406Z,43.57
2018-05-15T09:41:46.044Z,44.96
2018-05-15T09:44:12.694Z,45.06
2018-05-15T09:46:39.337Z,44.50
2018-05-15T09:49:06.144Z,45.43
2018-05-15T09:51:32.884Z,45.28
2018-05-15T09:53:59.560Z,45.35
2018-05-15T09:56:26.166Z,45.56
2018-05-15T09:58:52.810Z,45.63
2018-05-15T10:01:19.446Z,45.86
2018-05-15T10:03:47.129Z,45.66
2018-05-15T10:06:13.731Z,45.28
2018-05-15T10:08:40.411Z,44.27
2018-05-15T10:11:07.195Z,44.04
2018-05-15T10:13:33.835Z,43.81
2018-05-15T10:16:00.481Z,43.83
2018-05-15T10:18:27.162Z,43.00
2018-05-15T10:20:53.779Z,42.83
2018-05-15T10:23:20.434Z,43.31
2018-05-15T10:25:47.065Z,43.79
2018-05-15T10:28:13.705Z,43.79
2018-05-15T10:30:40.341Z,43.71
2018-05-15T10:33:07.007Z,44.07
2018-05-15T10:35:33.636Z,43.66
2018-05-15T10:38:00.319Z,44.39
2018-05-15T10:40:26.952Z,44.31
2018-05-15T10:42:53.605Z,42.26
2018-05-15T10:45:20.252Z,44.31
2018-05-15T10:47:46.892Z,44.48
2018-05-15T10:50:13.613Z,44.43
2018-05-15T10:52:40.220Z,43.83
2018-05-15T10:55:06.893Z,44.27
2018-05-15T10:57:33.532Z,44.78
2018-05-15T11:00:00.270Z,44.95
2018-05-15T11:02:26.907Z,44.96
2018-05-15T11:04:53.552Z,44.43
2018-05-15T11:07:20.228Z,44.12
2018-05-15T11:09:46.886Z,44.15
2018-05-15T11:12:13.615Z,43.78
2018-05-15T11:14:40.277Z,43.44
2018-05-15T11:17:07.109Z,43.18
2018-05-15T11:19:33.744Z,43.04
2018-05-15T11:22:00.522Z,42.78
2018-05-15T11:24:27.163Z,42.55
2018-05-15T11:26:53.874Z,42.89
2018-05-15T11:29:20.530Z,43.29
2018-05-15T11:31:47.278Z,42.19
2018-05-15T11:34:13.918Z,42.03
2018-05-15T11:36:40.594Z,41.54
2018-05-15T11:39:07.249Z,39.75
2018-05-15T11:41:33.993Z,39.99
2018-05-15T11:44:00.570Z,37.93
2018-05-15T11:46:27.299Z,38.92
2018-05-15T11:48:54.489Z,38.60
2018-05-15T11:51:21.584Z,38.24
2018-05-15T11:53:47.284Z,37.75
2018-05-15T11:56:13.884Z,36.59
2018-05-15T11:58:41.444Z,35.13
2018-05-15T12:01:08.105Z,35.62
2018-05-15T12:03:34.769Z,36.14
2018-05-15T12:06:01.401Z,36.15
2018-05-15T12:08:28.064Z,36.96
2018-05-15T12:10:54.854Z,36.59
2018-05-15T12:13:21.498Z,35.46
2018-05-15T12:15:48.140Z,35.69
2018-05-15T12:18:14.811Z,35.75
2018-05-15T12:20:41.475Z,34.99
2018-05-15T12:23:08.081Z,34.50
2018-05-15T12:25:34.780Z,33.95
2018-05-15T12:28:02.824Z,33.58
2018-05-15T12:30:28.096Z,33.33
2018-05-15T12:32:54.780Z,33.17
2018-05-15T12:35:21.467Z,33.13
2018-05-15T12:37:48.166Z,33.76
2018-05-15T12:40:14.837Z,35.13
2018-05-15T12:42:41.457Z,34.67
2018-05-15T12:45:08.145Z,34.32
2018-05-15T12:47:34.780Z,33.27
2018-05-15T12:50:01.416Z,33.01
2018-05-15T12:52:28.102Z,34.03
2018-05-15T12:54:54.747Z,33.87
2018-05-15T12:57:21.383Z,34.44
2018-05-15T12:59:48.133Z,34.63
2018-05-15T13:02:14.846Z,35.12
2018-05-15T13:04:41.497Z,34.29
2018-05-15T13:07:08.278Z,33.21
2018-05-15T13:09:34.962Z,32.99
2018-05-15T13:12:01.637Z,33.61
2018-05-15T13:14:28.272Z,34.29
2018-05-15T13:16:55.029Z,34.58
2018-05-15T13:19:21.643Z,34.11
2018-05-15T13:21:48.288Z,33.55
2018-05-15T13:24:14.979Z,33.44
2018-05-15T13:26:41.657Z,33.12
2018-05-15T13:29:08.416Z,34.07
2018-05-15T13:31:35.179Z,34.51
2018-05-15T13:34:01.785Z,34.34
2018-05-15T13:36:28.435Z,33.88
2018-05-15T13:38:55.200Z,33.79
2018-05-15T13:41:21.896Z,33.43
2018-05-15T13:43:48.582Z,33.25
2018-05-15T13:46:15.297Z,33.77
2018-05-15T13:48:41.971Z,33.83
2018-05-15T13:51:08.613Z,33.78
2018-05-15T13:53:35.264Z,33.46
2018-05-15T13:56:01.944Z,33.60
2018-05-15T13:58:28.652Z,33.36
2018-05-15T14:03:21.982Z,34.75
2018-05-15T14:05:48.663Z,33.83
2018-05-15T14:08:15.300Z,33.66
2018-05-15T14:10:41.983Z,33.66
2018-05-15T14:13:08.660Z,33.19
2018-05-15T14:15:35.259Z,32.83
2018-05-15T14:18:01.941Z,32.91
2018-05-15T14:20:28.712Z,33.22
2018-05-15T14:22:55.317Z,33.05
2018-05-15T14:25:21.965Z,32.94
2018-05-15T14:27:48.637Z,33.36
2018-05-15T14:30:15.247Z,35.22
2018-05-15T14:32:42.013Z,34.98
2018-05-15T14:35:08.680Z,34.88
2018-05-15T14:37:35.322Z,34.57
2018-05-15T14:40:02.012Z,34.50
2018-05-15T14:42:28.843Z,35.00
2018-05-15T14:44:58.657Z,34.46
2018-05-15T14:47:25.820Z,34.25
2018-05-15T14:49:52.509Z,34.23
2018-05-15T14:52:19.160Z,34.10
2018-05-15T14:54:45.847Z,33.84
2018-05-15T14:57:12.582Z,33.85
2018-05-15T14:59:39.174Z,33.85
2018-05-15T15:02:05.949Z,33.99
2018-05-15T15:04:32.610Z,33.98
2018-05-15T15:06:59.252Z,33.90
2018-05-15T15:09:25.929Z,34.06
2018-05-15T15:11:52.609Z,34.31
2018-05-15T15:14:19.239Z,34.46
2018-05-15T15:16:45.911Z,34.58
2018-05-15T15:19:13.680Z,34.79
2018-05-15T15:21:40.394Z,35.01
2018-05-15T15:24:07.061Z,35.03
2018-05-15T15:26:33.741Z,35.13
2018-05-15T15:29:00.392Z,35.17
2018-05-15T15:31:27.028Z,35.24
2018-05-15T15:33:53.706Z,35.37
2018-05-15T15:36:20.364Z,35.64
2018-05-15T15:38:47.032Z,35.79
2018-05-15T15:41:13.635Z,36.41
2018-05-15T15:43:40.371Z,36.61
2018-05-15T15:46:07.009Z,36.75
2018-05-15T15:48:33.640Z,36.61
2018-05-15T15:51:00.335Z,37.32
2018-05-15T15:53:28.997Z,37.54
2018-05-15T15:55:55.698Z,37.75
2018-05-15T15:58:22.323Z,37.51
2018-05-15T16:00:48.964Z,37.63
2018-05-15T16:03:15.650Z,37.93
2018-05-15T16:05:42.278Z,37.98
2018-05-15T16:08:08.921Z,38.23
2018-05-15T16:10:35.574Z,38.43
2018-05-15T16:13:02.211Z,39.00
2018-05-15T16:15:28.921Z,38.97
2018-05-15T16:17:55.535Z,39.14
2018-05-15T16:20:22.236Z,39.44
2018-05-15T16:22:50.080Z,39.55
2018-05-15T16:25:16.667Z,39.73
2018-05-15T16:27:43.323Z,39.69
2018-05-15T16:30:09.984Z,39.34
2018-05-15T16:32:36.619Z,39.49
2018-05-15T16:35:04.129Z,39.52
2018-05-15T16:37:30.828Z,39.57
2018-05-15T16:39:57.444Z,39.40
2018-05-15T16:42:24.127Z,39.43
2018-05-15T16:44:50.768Z,39.48
2018-05-15T16:47:17.407Z,39.45
2018-05-15T16:49:44.112Z,39.49
2018-05-15T16:52:10.701Z,39.50
2018-05-15T16:54:37.384Z,39.74
2018-05-15T16:57:04.087Z,39.56
2018-05-15T16:59:30.719Z,39.28
2018-05-15T17:01:57.394Z,39.45
2018-05-15T17:04:24.069Z,39.49
2018-05-15T17:06:50.709Z,39.59
2018-05-15T17:09:17.346Z,39.62
2018-05-15T17:11:44.076Z,39.82
2018-05-15T17:14:10.680Z,39.83
2018-05-15T17:16:37.318Z,39.88
2018-05-15T17:19:03.966Z,40.05
2018-05-15T17:21:30.649Z,40.18
2018-05-15T17:23:57.334Z,40.00
2018-05-15T17:26:24.012Z,40.12
2018-05-15T17:28:50.690Z,40.28
2018-05-15T17:31:17.458Z,40.50
2018-05-15T17:33:44.035Z,40.61
2018-05-15T17:36:10.724Z,40.85
2018-05-15T17:38:37.372Z,40.96
2018-05-15T17:41:04.041Z,40.99
2018-05-15T17:43:30.726Z,40.78
2018-05-15T17:45:57.366Z,40.76
2018-05-15T17:48:24.015Z,40.89
2018-05-15T17:50:50.655Z,40.96
2018-05-15T17:53:17.297Z,40.92
2018-05-15T17:55:43.936Z,40.91
2018-05-15T17:58:10.567Z,41.12
2018-05-15T18:00:37.209Z,41.12
2018-05-15T18:03:03.853Z,41.05
2018-05-15T18:05:30.528Z,41.06
2018-05-15T18:07:57.157Z,40.93
2018-05-15T18:10:23.810Z,40.95
2018-05-15T18:12:50.448Z,41.23
2018-05-15T18:15:17.108Z,41.26
2018-05-15T18:17:43.728Z,41.44
2018-05-15T18:20:10.366Z,41.57
2018-05-15T18:22:37.011Z,41.66
2018-05-15T18:25:03.645Z,41.69
2018-05-15T18:27:30.357Z,41.50
2018-05-15T18:29:56.926Z,41.21
2018-05-15T18:32:23.578Z,41.21
2018-05-15T18:34:50.216Z,41.26
2018-05-15T18:37:16.899Z,41.28
2018-05-15T18:39:43.639Z,41.24
2018-05-15T18:42:10.276Z,41.30
2018-05-15T18:44:36.929Z,41.28
2018-05-15T18:47:03.604Z,41.36
2018-05-15T18:49:30.241Z,41.29
2018-05-15T18:51:56.923Z,41.44
2018-05-15T18:54:23.570Z,41.45
2018-05-15T18:56:50.250Z,41.44
2018-05-15T18:59:16.886Z,41.55
2018-05-15T19:01:43.573Z,41.61
2018-05-15T19:04:10.256Z,41.61
2018-05-15T19:06:36.940Z,41.68
2018-05-15T19:09:03.595Z,41.67
2018-05-15T19:11:30.236Z,41.89
2018-05-15T19:13:56.951Z,41.84
2018-05-15T19:16:23.560Z,41.89
2018-05-15T19:18:50.199Z,42.01
2018-05-15T19:21:16.834Z,42.06
2018-05-15T19:23:43.484Z,42.08
2018-05-15T19:26:10.161Z,42.17
2018-05-15T19:28:36.808Z,42.25
2018-05-15T19:31:03.453Z,42.30
2018-05-15T19:33:30.239Z,42.42
2018-05-15T19:35:56.758Z,42.49
2018-05-15T19:38:23.441Z,42.59
2018-05-15T19:40:50.085Z,42.62
2018-05-15T19:43:16.728Z,42.60
2018-05-15T19:45:43.397Z,42.70
2018-05-15T19:48:10.111Z,42.73
2018-05-15T19:50:36.717Z,42.84
2018-05-15T19:53:03.347Z,42.84
2018-05-15T19:55:29.985Z,42.95
2018-05-15T19:57:56.619Z,43.04
2018-05-15T20:00:23.349Z,43.05
2018-05-15T20:02:49.981Z,43.18
2018-05-15T20:05:16.647Z,43.26
2018-05-15T20:07:43.364Z,43.23
2018-05-15T20:10:10.014Z,43.27
2018-05-15T20:12:36.651Z,43.40
2018-05-15T20:15:03.333Z,43.37
2018-05-15T20:17:30.011Z,43.42
2018-05-15T20:19:56.644Z,43.43
2018-05-15T20:22:23.274Z,43.63
2018-05-15T20:24:49.957Z,43.71
2018-05-15T20:27:16.585Z,43.66
2018-05-15T20:29:43.284Z,43.66
2018-05-15T20:32:09.914Z,43.70
2018-05-15T20:34:36.559Z,43.85
2018-05-15T20:37:03.201Z,43.90
2018-05-15T20:39:29.837Z,43.84
2018-05-15T20:41:56.519Z,43.91
2018-05-15T20:44:23.201Z,43.99
2018-05-15T20:46:49.903Z,43.97
2018-05-15T20:49:16.539Z,44.02
2018-05-15T20:51:43.177Z,44.03
2018-05-15T20:54:09.877Z,44.12
2018-05-15T20:56:36.564Z,44.15
2018-05-15T20:59:03.241Z,44.17
2018-05-15T21:01:29.874Z,44.30
2018-05-15T21:03:56.555Z,44.25
2018-05-15T21:06:23.189Z,44.30
2018-05-15T21:08:49.818Z,44.44
2018-05-15T21:11:16.473Z,44.44
2018-05-15T21:13:43.153Z,44.55
2018-05-15T21:16:09.842Z,44.56
2018-05-15T21:18:36.479Z,44.65
2018-05-15T21:21:03.126Z,44.67
2018-05-15T21:23:29.806Z,44.68
2018-05-15T21:25:56.442Z,44.73
2018-05-15T21:28:23.077Z,44.82
2018-05-15T21:30:49.719Z,44.86
2018-05-15T21:33:16.398Z,44.96
2018-05-15T21:35:43.078Z,44.99
2018-05-15T21:38:09.714Z,45.06
2018-05-15T21:40:38.416Z,45.10
2018-05-15T21:43:05.054Z,45.14
2018-05-15T21:45:31.744Z,45.20
2018-05-15T21:47:58.382Z,45.31
2018-05-15T21:50:25.068Z,45.35
2018-05-15T21:52:51.705Z,45.37
2018-05-15T21:55:18.396Z,45.43
2018-05-15T21:57:45.032Z,45.50
2018-05-15T22:00:11.674Z,45.43
2018-05-15T22:02:38.361Z,45.57
2018-05-15T22:05:05.041Z,45.60
2018-05-15T22:07:31.674Z,45.64
2018-05-15T22:09:58.357Z,45.75
2018-05-15T22:12:24.993Z,45.74
2018-05-15T22:14:51.674Z,45.79
2018-05-15T22:17:18.311Z,45.88
2018-05-15T22:19:44.941Z,45.90
2018-05-15T22:22:11.585Z,45.91
2018-05-15T22:24:38.264Z,45.91
2018-05-15T22:27:04.965Z,46.01
2018-05-15T22:29:31.650Z,46.00
2018-05-15T22:31:58.325Z,46.09
2018-05-15T22:34:25.007Z,46.08
2018-05-15T22:36:51.637Z,46.07
2018-05-15T22:39:18.318Z,46.19
2018-05-15T22:41:45.079Z,46.26
2018-05-15T22:44:11.598Z,46.17
2018-05-15T22:46:38.279Z,46.20
2018-05-15T22:49:04.957Z,46.25
2018-05-15T22:51:31.598Z,46.34
2018-05-15T22:53:58.277Z,46.29
2018-05-15T22:56:24.918Z,46.32
2018-05-15T22:58:51.560Z,46.38
2018-05-15T23:01:18.203Z,46.32
2018-05-15T23:03:44.889Z,46.43
2018-05-15T23:06:11.530Z,46.45
2018-05-15T23:08:38.167Z,46.47
2018-05-15T23:11:04.860Z,46.41
2018-05-15T23:13:31.534Z,46.49
2018-05-15T23:15:58.172Z,46.51
2018-05-15T23:18:24.852Z,46.48
2018-05-15T23:20:51.535Z,46.52
2018-05-15T23:23:18.166Z,46.52
2018-05-15T23:25:44.845Z,46.48
2018-05-15T23:28:11.478Z,46.52
2018-05-15T23:30:38.214Z,46.57
2018-05-15T23:33:04.853Z,46.64
2018-05-15T23:35:31.494Z,46.59
2018-05-15T23:37:58.165Z,46.57
2018-05-15T23:40:24.800Z,46.65
2018-05-15T23:42:51.484Z,46.63
2018-05-15T23:45:18.152Z,46.63
2018-05-15T23:47:44.803Z,46.58
2018-05-15T23:50:11.478Z,46.69
2018-05-15T23:52:38.154Z,46.75
2018-05-15T23:55:04.791Z,46.67
2018-05-15T23:57:31.470Z,46.67
2018-05-15T23:59:58.110Z,46.73
